Alder Grove, Washington
Current Conditions -  °F | °C
As of 10:53 PM on Thursday 30 Oct 2014 (Local Time) from KSHN Reporting Station
Light Rain Light Rain  
Wind Chill: 53°   Ceiling: 8000
Heat Index: 53°   Visibility: 10mi
Dew Point: 51°   Wind: 3mph
Humidity: 93%   Direction: 240°WSW
Pressure: 29.75"   Gusts: NA
Location:  47.555°N, 123.746°W
Report Text: KSHN 310553Z AUTO 24003KT 10SM -RA SCT065 OVC080 12/11 A2975 RMK AO2 SLP075 P0000 60020 T01170106 10139 20117 56004 TSNO
Loading
Personal Weather Stations






























Interactive Weather Map New forecast layout! Learn more

10-Day Weather Forecast

Advertisements
Track Severe Weather on mobile